createdAt,value
2019-02-27T00:00:11.474Z,74.90
2019-02-27T00:02:38.373Z,74.70
2019-02-27T00:05:08.415Z,73.60
2019-02-27T00:07:34.388Z,75.30
2019-02-27T00:10:00.569Z,76.80
2019-02-27T00:12:26.906Z,77.80
2019-02-27T00:14:53.145Z,76.90
2019-02-27T00:17:19.589Z,75.30
2019-02-27T00:19:46.066Z,74.70
2019-02-27T00:22:12.297Z,74.80
2019-02-27T00:24:38.436Z,74.70
2019-02-27T00:27:04.664Z,75.20
2019-02-27T00:29:30.929Z,76.20
2019-02-27T00:31:57.162Z,76.80
2019-02-27T00:34:23.391Z,77.10
2019-02-27T00:36:49.635Z,78.20
2019-02-27T00:39:15.888Z,78.00
2019-02-27T00:41:43.051Z,77.50
2019-02-27T00:44:10.323Z,78.00
2019-02-27T00:46:36.584Z,78.20
2019-02-27T00:49:02.931Z,79.00
2019-02-27T00:51:29.151Z,77.30
2019-02-27T00:53:55.967Z,75.90
2019-02-27T00:56:23.529Z,75.20
2019-02-27T00:58:49.747Z,75.70
2019-02-27T01:01:15.990Z,75.70
2019-02-27T01:03:42.210Z,76.10
2019-02-27T01:06:08.444Z,76.80
2019-02-27T01:08:34.588Z,77.30
2019-02-27T01:11:00.995Z,77.30
2019-02-27T01:13:28.909Z,77.40
2019-02-27T01:15:55.379Z,78.00
2019-02-27T01:18:21.653Z,78.10
2019-02-27T01:20:47.966Z,78.80
2019-02-27T01:23:14.254Z,78.70
2019-02-27T01:25:40.484Z,79.00
2019-02-27T01:28:10.876Z,80.00
2019-02-27T01:30:34.842Z,80.00
2019-02-27T01:33:03.999Z,78.60
2019-02-27T01:35:29.258Z,78.60
2019-02-27T01:37:55.602Z,78.00
2019-02-27T01:40:22.065Z,78.00
2019-02-27T01:42:48.392Z,79.60
2019-02-27T01:45:14.924Z,80.50
2019-02-27T01:47:41.280Z,80.60
2019-02-27T01:50:27.659Z,81.10
2019-02-27T01:52:54.006Z,81.10
2019-02-27T01:55:22.398Z,79.50
2019-02-27T01:57:48.321Z,78.80
2019-02-27T02:00:15.197Z,78.70
2019-02-27T02:02:41.306Z,79.40
2019-02-27T02:05:07.540Z,80.10
2019-02-27T02:07:33.689Z,82.00
2019-02-27T02:09:59.923Z,80.90
2019-02-27T02:12:26.353Z,80.50
2019-02-27T02:15:02.269Z,80.00
2019-02-27T02:17:54.786Z,80.10
2019-02-27T02:20:30.967Z,81.20
2019-02-27T02:23:13.944Z,81.50
2019-02-27T02:25:41.891Z,82.20
2019-02-27T02:28:26.894Z,82.60
2019-02-27T02:31:05.433Z,83.20
2019-02-27T02:34:05.495Z,83.30
2019-02-27T02:36:47.530Z,82.00
2019-02-27T02:39:29.890Z,82.90
2019-02-27T02:42:05.760Z,83.00
2019-02-27T02:44:58.583Z,82.80
2019-02-27T02:47:34.637Z,81.10
2019-02-27T02:50:22.782Z,80.20
2019-02-27T02:53:01.630Z,80.50
2019-02-27T02:55:47.532Z,80.50
2019-02-27T02:58:18.109Z,81.70
2019-02-27T03:01:15.467Z,82.80
2019-02-27T03:03:51.541Z,83.30
2019-02-27T03:06:24.385Z,83.60
2019-02-27T03:09:23.301Z,83.60
2019-02-27T03:11:56.354Z,84.10
2019-02-27T03:14:37.865Z,84.20
2019-02-27T03:17:10.540Z,85.30
2019-02-27T03:20:08.873Z,86.20
2019-02-27T03:22:42.103Z,84.80
2019-02-27T03:25:28.718Z,82.80
2019-02-27T03:28:17.144Z,83.40
2019-02-27T03:30:59.175Z,85.40
2019-02-27T03:34:07.875Z,85.00
2019-02-27T03:36:42.375Z,84.10
2019-02-27T03:39:34.970Z,83.00
2019-02-27T03:42:19.475Z,83.50
2019-02-27T03:44:55.802Z,82.60
2019-02-27T03:47:24.512Z,83.00
2019-02-27T03:49:54.569Z,83.50
2019-02-27T03:52:36.031Z,83.90
2019-02-27T03:55:08.129Z,84.50
2019-02-27T03:57:54.874Z,86.40
2019-02-27T04:00:37.310Z,85.90
2019-02-27T04:03:10.202Z,85.70
2019-02-27T04:05:55.113Z,84.80
2019-02-27T04:08:25.066Z,84.70
2019-02-27T04:10:51.326Z,84.20
2019-02-27T04:13:17.586Z,83.10
2019-02-27T04:15:43.954Z,83.50
2019-02-27T04:18:09.973Z,83.00
2019-02-27T04:20:36.397Z,83.60
2019-02-27T04:23:03.112Z,84.20
2019-02-27T04:25:31.554Z,84.60
2019-02-27T04:27:57.422Z,85.40
2019-02-27T04:30:23.629Z,85.30
2019-02-27T04:32:49.967Z,85.90
2019-02-27T04:35:16.304Z,86.10
2019-02-27T04:37:42.449Z,86.20
2019-02-27T04:40:10.823Z,86.10
2019-02-27T04:42:37.149Z,85.90
2019-02-27T04:45:06.637Z,85.00
2019-02-27T04:47:32.860Z,84.00
2019-02-27T04:49:59.081Z,84.20
2019-02-27T04:52:25.340Z,84.30
2019-02-27T04:54:51.672Z,86.00
2019-02-27T04:57:17.810Z,86.40
2019-02-27T04:59:43.940Z,86.30
2019-02-27T05:02:12.063Z,86.40
2019-02-27T05:04:38.098Z,86.20
2019-02-27T05:07:04.375Z,85.80
2019-02-27T05:09:31.447Z,85.60
2019-02-27T05:11:58.669Z,84.90
2019-02-27T05:14:27.362Z,85.60
2019-02-27T05:16:53.046Z,85.00
2019-02-27T05:19:19.251Z,84.50
2019-02-27T05:21:45.370Z,85.60
2019-02-27T05:24:11.553Z,86.50
2019-02-27T05:26:37.776Z,86.30
2019-02-27T05:29:03.963Z,87.00
2019-02-27T05:31:30.090Z,87.90
2019-02-27T05:33:56.336Z,88.20
2019-02-27T05:36:22.498Z,88.10
2019-02-27T05:38:48.804Z,86.60
2019-02-27T05:41:15.033Z,85.70
2019-02-27T05:43:41.301Z,86.00
2019-02-27T05:46:07.642Z,86.20
2019-02-27T05:48:33.783Z,87.80
2019-02-27T05:50:59.938Z,88.60
2019-02-27T05:53:26.081Z,88.20
2019-02-27T05:55:52.453Z,89.30
2019-02-27T05:58:22.843Z,89.20
2019-02-27T06:00:46.977Z,89.30
2019-02-27T06:03:13.210Z,88.40
2019-02-27T06:05:39.422Z,87.50
2019-02-27T06:08:05.594Z,87.30
2019-02-27T06:10:31.819Z,87.40
2019-02-27T06:12:58.053Z,86.50
2019-02-27T06:15:26.088Z,85.40
2019-02-27T06:17:52.435Z,84.60
2019-02-27T06:20:18.925Z,84.70
2019-02-27T06:22:45.281Z,85.30
2019-02-27T06:25:13.924Z,84.90
2019-02-27T06:27:40.198Z,85.10
2019-02-27T06:30:12.426Z,85.30
2019-02-27T06:32:38.661Z,84.30
2019-02-27T06:35:07.426Z,84.20
2019-02-27T06:37:33.777Z,85.50
2019-02-27T06:40:00.417Z,87.40
2019-02-27T06:42:26.632Z,88.60
2019-02-27T06:44:53.342Z,87.60
2019-02-27T06:47:23.410Z,86.70
2019-02-27T06:49:51.953Z,86.70
2019-02-27T06:52:18.731Z,86.20
2019-02-27T06:54:51.933Z,86.80
2019-02-27T06:57:20.600Z,87.50
2019-02-27T06:59:46.832Z,88.10
2019-02-27T07:02:15.554Z,89.30
2019-02-27T07:04:43.709Z,89.70
2019-02-27T07:07:12.723Z,88.50
2019-02-27T07:09:45.516Z,88.00
2019-02-27T07:12:11.638Z,88.10
2019-02-27T07:17:19.307Z,88.40
2019-02-27T07:19:49.727Z,90.20
2019-02-27T07:22:16.237Z,91.00
2019-02-27T07:24:42.692Z,91.70
2019-02-27T07:27:12.519Z,91.70
2019-02-27T07:29:38.916Z,91.80
2019-02-27T07:32:05.373Z,91.80
2019-02-27T07:34:34.431Z,91.90
2019-02-27T07:37:10.455Z,92.20
2019-02-27T07:39:37.089Z,92.80
2019-02-27T07:42:03.422Z,93.20
2019-02-27T07:44:35.045Z,93.30
2019-02-27T07:47:01.139Z,93.50
2019-02-27T07:49:28.373Z,93.80
2019-02-27T07:51:58.220Z,94.20
2019-02-27T07:54:30.510Z,93.60
2019-02-27T07:56:56.760Z,94.00
2019-02-27T07:59:23.002Z,94.10
2019-02-27T08:01:49.555Z,94.90
2019-02-27T08:04:19.031Z,95.10
2019-02-27T08:06:44.010Z,95.50
2019-02-27T08:09:10.736Z,96.10
2019-02-27T08:11:37.194Z,95.80
2019-02-27T08:14:03.955Z,96.50
2019-02-27T08:16:32.405Z,96.60
2019-02-27T08:18:58.644Z,97.00
2019-02-27T08:21:24.886Z,96.30
2019-02-27T08:23:51.034Z,96.30
2019-02-27T08:26:18.471Z,96.60
2019-02-27T08:28:51.255Z,96.40
2019-02-27T08:31:28.185Z,95.90
2019-02-27T08:33:53.840Z,96.30
2019-02-27T08:36:20.816Z,96.00
2019-02-27T08:38:47.498Z,95.70
2019-02-27T08:41:13.706Z,96.40
2019-02-27T08:43:41.215Z,96.40
2019-02-27T08:46:09.755Z,96.50
2019-02-27T08:48:38.574Z,95.80
2019-02-27T08:51:08.403Z,95.50
2019-02-27T08:53:34.486Z,95.80
2019-02-27T08:56:00.843Z,96.10
2019-02-27T08:58:29.685Z,96.10
2019-02-27T09:00:57.568Z,95.90
2019-02-27T09:03:23.802Z,96.00
2019-02-27T09:05:50.960Z,95.90
2019-02-27T09:08:18.266Z,95.60
2019-02-27T09:10:47.348Z,95.40
2019-02-27T09:13:13.671Z,95.00
2019-02-27T09:15:41.632Z,94.40
2019-02-27T09:18:10.900Z,93.60
2019-02-27T09:20:39.681Z,93.10
2019-02-27T09:23:05.985Z,92.70
2019-02-27T09:25:34.208Z,92.20
2019-02-27T09:28:08.928Z,91.40
2019-02-27T09:30:35.180Z,90.80
2019-02-27T09:33:01.999Z,90.10
2019-02-27T09:35:32.248Z,88.50
2019-02-27T09:37:56.334Z,86.70
2019-02-27T09:40:26.714Z,84.20
2019-02-27T09:42:54.557Z,82.20
2019-02-27T09:45:35.109Z,81.50
2019-02-27T09:48:01.730Z,81.10
2019-02-27T09:50:36.660Z,79.90
2019-02-27T09:53:04.216Z,78.00
2019-02-27T09:55:35.599Z,76.70
2019-02-27T09:57:59.945Z,73.80
2019-02-27T10:00:47.812Z,72.40
2019-02-27T10:03:14.258Z,70.80
2019-02-27T10:05:40.968Z,70.20
2019-02-27T10:08:08.142Z,68.50
2019-02-27T10:10:34.736Z,65.90
2019-02-27T10:13:03.394Z,63.80
2019-02-27T10:15:29.348Z,62.10
2019-02-27T10:18:01.391Z,60.40
2019-02-27T10:20:29.720Z,58.10
2019-02-27T10:22:59.536Z,56.20
2019-02-27T10:25:25.979Z,53.60
2019-02-27T10:27:52.396Z,52.10
2019-02-27T10:30:23.306Z,49.90
2019-02-27T10:32:52.058Z,50.00
2019-02-27T10:35:18.891Z,48.70
2019-02-27T10:37:50.480Z,46.00
2019-02-27T10:40:16.475Z,44.00
2019-02-27T10:42:42.817Z,38.30
2019-02-27T10:45:10.974Z,38.00
2019-02-27T10:47:39.720Z,36.90
2019-02-27T10:50:09.123Z,37.10
2019-02-27T10:52:35.566Z,33.30
2019-02-27T10:55:02.087Z,34.90
2019-02-27T10:57:38.168Z,37.70
2019-02-27T10:59:59.982Z,37.30
2019-02-27T11:02:29.127Z,33.30
2019-02-27T11:04:55.346Z,34.30
2019-02-27T11:07:21.568Z,34.30
2019-02-27T11:09:47.814Z,31.80
2019-02-27T11:12:14.048Z,32.30
2019-02-27T11:14:40.188Z,31.70
2019-02-27T11:17:09.930Z,30.50
2019-02-27T11:19:36.510Z,29.50
2019-02-27T11:22:02.992Z,30.40
2019-02-27T11:24:34.482Z,29.40
2019-02-27T11:26:58.258Z,30.60
2019-02-27T11:29:24.518Z,30.80
2019-02-27T11:31:50.773Z,31.20
2019-02-27T11:34:17.102Z,30.30
2019-02-27T11:36:43.358Z,29.20
2019-02-27T11:39:09.951Z,29.50
2019-02-27T11:41:36.276Z,29.80
2019-02-27T11:44:02.855Z,29.80
2019-02-27T11:46:29.276Z,30.00
2019-02-27T11:48:57.059Z,29.90
2019-02-27T11:51:23.785Z,30.50
2019-02-27T11:53:50.201Z,30.10
2019-02-27T11:56:16.456Z,30.80
2019-02-27T11:58:43.169Z,29.60
2019-02-27T12:01:09.835Z,29.70
2019-02-27T12:03:36.555Z,29.10
2019-02-27T12:06:05.310Z,29.10
2019-02-27T12:08:31.008Z,28.40
2019-02-27T12:10:57.271Z,27.50
2019-02-27T12:13:23.522Z,27.60
2019-02-27T12:15:50.247Z,28.00
2019-02-27T12:18:16.633Z,27.80
2019-02-27T12:20:43.483Z,28.20
2019-02-27T12:23:10.074Z,28.70
2019-02-27T12:25:36.860Z,27.70
2019-02-27T12:28:05.363Z,26.90
2019-02-27T12:30:32.020Z,26.90
2019-02-27T12:32:59.073Z,27.60
2019-02-27T12:35:28.458Z,26.60
2019-02-27T12:37:54.820Z,26.60
2019-02-27T12:40:25.259Z,27.10
2019-02-27T12:42:52.046Z,24.70
2019-02-27T12:45:20.233Z,25.00
2019-02-27T12:47:46.746Z,24.90
2019-02-27T12:50:15.161Z,24.60
2019-02-27T12:52:44.349Z,23.30
2019-02-27T12:55:09.903Z,23.30
2019-02-27T12:57:36.281Z,22.60
2019-02-27T13:00:08.415Z,23.40
2019-02-27T13:02:35.863Z,23.30
2019-02-27T13:05:03.825Z,23.10
2019-02-27T13:07:30.076Z,23.20
2019-02-27T13:09:58.762Z,21.60
2019-02-27T13:12:24.630Z,21.40
2019-02-27T13:14:50.884Z,21.70
2019-02-27T13:17:17.205Z,20.80
2019-02-27T13:19:43.476Z,20.40
2019-02-27T13:22:09.709Z,20.70
2019-02-27T13:24:35.951Z,20.20
2019-02-27T13:27:02.172Z,20.50
2019-02-27T13:29:28.330Z,20.00
2019-02-27T13:31:56.481Z,20.50
2019-02-27T13:34:22.549Z,20.20
2019-02-27T13:36:48.762Z,19.90
2019-02-27T13:39:15.024Z,20.00
2019-02-27T13:41:42.369Z,19.80
2019-02-27T13:44:09.767Z,19.20
2019-02-27T13:46:36.026Z,19.50
2019-02-27T13:49:02.440Z,19.50
2019-02-27T13:51:28.892Z,18.90
2019-02-27T13:54:00.303Z,18.70
2019-02-27T13:56:25.138Z,18.40
2019-02-27T13:58:51.535Z,18.60
2019-02-27T14:01:18.016Z,18.80
2019-02-27T14:03:45.639Z,18.90
2019-02-27T14:06:12.421Z,18.40
2019-02-27T14:08:38.652Z,18.20
2019-02-27T14:11:05.030Z,18.60
2019-02-27T14:13:31.367Z,18.60
2019-02-27T14:15:58.073Z,18.80
2019-02-27T14:18:25.654Z,19.00
2019-02-27T14:20:51.814Z,19.30
2019-02-27T14:23:18.094Z,19.40
2019-02-27T14:25:44.465Z,19.50
2019-02-27T14:28:10.676Z,19.50
2019-02-27T14:30:43.484Z,19.30
2019-02-27T14:33:11.032Z,19.60
2019-02-27T14:35:37.328Z,19.80
2019-02-27T14:38:03.575Z,20.00
2019-02-27T14:40:29.957Z,19.40
2019-02-27T14:42:56.254Z,19.20
2019-02-27T14:45:24.151Z,19.20
2019-02-27T14:47:50.596Z,19.40
2019-02-27T14:50:19.616Z,19.50
2019-02-27T14:52:45.864Z,19.70
2019-02-27T14:55:13.682Z,19.50
2019-02-27T14:57:40.503Z,19.40
2019-02-27T15:00:14.283Z,19.30
2019-02-27T15:02:40.400Z,19.50
2019-02-27T15:05:09.052Z,19.60
2019-02-27T15:07:35.297Z,19.80
2019-02-27T15:10:03.014Z,19.20
2019-02-27T15:12:29.253Z,19.40
2019-02-27T15:14:55.599Z,19.70
2019-02-27T15:17:21.893Z,20.00
2019-02-27T15:19:48.452Z,20.50
2019-02-27T15:22:14.977Z,20.30
2019-02-27T15:24:41.324Z,19.80
2019-02-27T15:27:07.601Z,20.50
2019-02-27T15:29:33.929Z,20.50
2019-02-27T15:32:00.142Z,20.90
2019-02-27T15:34:30.471Z,20.80
2019-02-27T15:36:56.935Z,20.50
2019-02-27T15:39:23.197Z,20.80
2019-02-27T15:41:50.053Z,20.60
2019-02-27T15:44:18.983Z,21.10
2019-02-27T15:46:48.628Z,21.30
2019-02-27T15:49:15.915Z,21.40
2019-02-27T15:51:42.763Z,21.40
2019-02-27T15:54:09.529Z,21.30
2019-02-27T15:56:35.982Z,21.60
2019-02-27T15:59:07.340Z,22.10
2019-02-27T16:01:34.161Z,22.30
2019-02-27T16:04:00.398Z,22.50
2019-02-27T16:06:26.727Z,22.60
2019-02-27T16:08:57.429Z,22.90
2019-02-27T16:11:20.906Z,22.80
2019-02-27T16:13:47.268Z,23.10
2019-02-27T16:16:13.512Z,22.90
2019-02-27T16:18:39.662Z,23.30
2019-02-27T16:21:06.135Z,23.20
2019-02-27T16:23:37.205Z,23.50
2019-02-27T16:26:01.062Z,23.30
2019-02-27T16:28:27.177Z,23.60
2019-02-27T16:30:55.698Z,23.60
2019-02-27T16:33:24.053Z,24.00
2019-02-27T16:35:49.981Z,24.20
2019-02-27T16:38:16.786Z,25.70
2019-02-27T16:40:43.120Z,26.00
2019-02-27T16:43:10.300Z,26.00
2019-02-27T16:45:37.729Z,26.00
2019-02-27T16:48:04.277Z,26.30
2019-02-27T16:50:33.463Z,26.80
2019-02-27T16:52:59.616Z,27.30
2019-02-27T16:55:26.566Z,27.70
2019-02-27T16:57:56.470Z,28.20
2019-02-27T17:00:24.867Z,28.50
2019-02-27T17:02:51.373Z,28.90
2019-02-27T17:05:17.707Z,29.20
2019-02-27T17:07:46.176Z,29.40
2019-02-27T17:10:17.871Z,28.90
2019-02-27T17:12:44.843Z,28.80
2019-02-27T17:15:12.435Z,29.00
2019-02-27T17:17:40.576Z,28.90
2019-02-27T17:20:12.503Z,28.90
2019-02-27T17:22:38.821Z,29.10
2019-02-27T17:25:07.702Z,29.00
2019-02-27T17:27:33.954Z,29.40
2019-02-27T17:30:00.914Z,29.00
2019-02-27T17:32:30.070Z,29.10
2019-02-27T17:34:55.541Z,29.40
2019-02-27T17:37:21.894Z,29.70
2019-02-27T17:39:48.205Z,30.50
2019-02-27T17:42:18.280Z,30.40
2019-02-27T17:44:42.548Z,30.40
2019-02-27T17:47:09.103Z,29.90
2019-02-27T17:49:35.339Z,29.80
2019-02-27T17:52:01.527Z,29.90
2019-02-27T17:54:31.385Z,30.00
2019-02-27T17:56:55.774Z,30.10
2019-02-27T17:59:22.023Z,30.20
2019-02-27T18:01:48.241Z,30.20
2019-02-27T18:04:15.100Z,30.60
2019-02-27T18:06:41.490Z,30.70
2019-02-27T18:09:08.521Z,30.60
2019-02-27T18:11:34.746Z,30.70
2019-02-27T18:14:00.990Z,31.00
2019-02-27T18:16:27.944Z,31.10
2019-02-27T18:18:54.490Z,31.40
2019-02-27T18:21:20.607Z,31.50
2019-02-27T18:23:48.003Z,32.30
2019-02-27T18:26:15.633Z,31.80
2019-02-27T18:28:42.833Z,32.00
2019-02-27T18:31:09.099Z,31.70
2019-02-27T18:33:35.280Z,31.60
2019-02-27T18:36:04.904Z,31.60
2019-02-27T18:38:29.716Z,31.60
2019-02-27T18:40:55.938Z,31.40
2019-02-27T18:43:22.048Z,32.40
2019-02-27T18:45:50.863Z,32.30
2019-02-27T18:48:16.422Z,31.50
2019-02-27T18:50:42.796Z,31.60
2019-02-27T18:53:13.068Z,33.10
2019-02-27T18:55:37.125Z,33.60
2019-02-27T18:58:03.468Z,33.70
2019-02-27T19:00:29.756Z,34.00
2019-02-27T19:03:01.908Z,34.20
2019-02-27T19:05:28.127Z,34.50
2019-02-27T19:07:55.206Z,34.50
2019-02-27T19:10:21.891Z,34.50
2019-02-27T19:12:48.160Z,34.80
2019-02-27T19:15:16.612Z,35.30
2019-02-27T19:17:42.974Z,35.40
2019-02-27T19:20:11.964Z,35.30
2019-02-27T19:22:38.235Z,35.40
2019-02-27T19:25:04.957Z,35.50
2019-02-27T19:27:31.125Z,35.60
2019-02-27T19:29:57.520Z,35.60
2019-02-27T19:32:24.212Z,35.70
2019-02-27T19:34:50.646Z,35.70
2019-02-27T19:37:17.008Z,35.90
2019-02-27T19:39:43.986Z,36.00
2019-02-27T19:42:12.965Z,36.00
2019-02-27T19:44:38.747Z,36.50
2019-02-27T19:47:05.237Z,36.80
2019-02-27T19:49:34.169Z,37.20
2019-02-27T19:52:00.022Z,37.30
2019-02-27T19:54:26.388Z,37.30
2019-02-27T19:56:52.755Z,37.60
2019-02-27T19:59:19.011Z,37.80
2019-02-27T20:01:49.019Z,38.00
2019-02-27T20:04:13.391Z,38.00
2019-02-27T20:06:39.885Z,38.00
2019-02-27T20:09:07.384Z,38.00
2019-02-27T20:11:33.604Z,38.00
2019-02-27T20:14:02.632Z,38.10
2019-02-27T20:16:28.230Z,37.90
2019-02-27T20:18:55.262Z,38.10
2019-02-27T20:21:21.787Z,38.20
2019-02-27T20:23:47.967Z,38.20
2019-02-27T20:26:17.266Z,38.10
2019-02-27T20:28:42.563Z,38.30
2019-02-27T20:31:08.977Z,38.40
2019-02-27T20:33:37.319Z,38.70
2019-02-27T20:36:03.615Z,38.70
2019-02-27T20:38:30.597Z,38.80
2019-02-27T20:40:57.072Z,38.80
2019-02-27T20:43:29.111Z,38.70
2019-02-27T20:45:51.459Z,38.70
2019-02-27T20:48:17.758Z,38.60
2019-02-27T20:50:55.179Z,38.70
2019-02-27T20:53:21.986Z,38.90
2019-02-27T20:55:48.347Z,39.10
2019-02-27T20:58:16.709Z,39.00
2019-02-27T21:00:42.616Z,39.30
2019-02-27T21:03:08.888Z,39.40
2019-02-27T21:05:35.318Z,39.30
2019-02-27T21:08:02.530Z,39.60
2019-02-27T21:10:32.751Z,39.90
2019-02-27T21:12:59.384Z,40.20
2019-02-27T21:15:29.308Z,40.10
2019-02-27T21:17:58.008Z,40.10
2019-02-27T21:20:23.772Z,40.10
2019-02-27T21:22:50.073Z,40.30
2019-02-27T21:25:18.388Z,40.60
2019-02-27T21:27:44.621Z,40.70
2019-02-27T21:30:17.750Z,40.90
2019-02-27T21:32:42.147Z,41.30
2019-02-27T21:35:08.898Z,40.80
2019-02-27T21:37:35.135Z,41.00
2019-02-27T21:40:03.286Z,41.10
2019-02-27T21:42:29.671Z,41.10
2019-02-27T21:44:55.960Z,41.20
2019-02-27T21:47:22.238Z,41.50
2019-02-27T21:49:48.763Z,41.50
2019-02-27T21:52:15.018Z,41.50
2019-02-27T21:54:41.251Z,41.60
2019-02-27T21:57:07.671Z,41.70
2019-02-27T21:59:36.344Z,41.90
2019-02-27T22:02:02.011Z,42.20
2019-02-27T22:04:28.653Z,42.50
2019-02-27T22:06:58.478Z,42.40
2019-02-27T22:09:23.300Z,42.60
2019-02-27T22:11:49.477Z,43.10
2019-02-27T22:14:16.742Z,43.30
2019-02-27T22:16:43.760Z,43.40
2019-02-27T22:19:10.178Z,43.70
2019-02-27T22:21:36.574Z,43.70
2019-02-27T22:24:03.089Z,43.80
2019-02-27T22:26:29.523Z,43.90
2019-02-27T22:28:56.106Z,43.90
2019-02-27T22:31:22.345Z,44.00
2019-02-27T22:33:48.534Z,44.40
2019-02-27T22:36:19.431Z,44.50
2019-02-27T22:38:45.488Z,44.50
2019-02-27T22:41:20.785Z,44.70
2019-02-27T22:43:47.036Z,44.70
2019-02-27T22:46:13.655Z,44.90
2019-02-27T22:48:45.641Z,45.10
2019-02-27T22:51:13.395Z,45.20
2019-02-27T22:53:39.689Z,45.10
2019-02-27T22:56:06.127Z,45.10
2019-02-27T22:58:32.339Z,45.30
2019-02-27T23:01:09.519Z,45.50
2019-02-27T23:03:44.746Z,45.60
2019-02-27T23:06:12.129Z,45.50
2019-02-27T23:08:39.543Z,45.70
2019-02-27T23:11:06.239Z,46.10
2019-02-27T23:13:32.475Z,46.30
2019-02-27T23:15:59.145Z,46.50
2019-02-27T23:18:29.431Z,46.50
2019-02-27T23:20:56.147Z,46.50
2019-02-27T23:23:22.639Z,47.00
2019-02-27T23:25:48.934Z,47.30
2019-02-27T23:28:15.184Z,47.50
2019-02-27T23:30:41.402Z,47.60
2019-02-27T23:33:07.655Z,47.70
2019-02-27T23:35:34.229Z,48.20
2019-02-27T23:38:02.910Z,48.20
2019-02-27T23:40:28.511Z,48.40
2019-02-27T23:42:55.262Z,48.20
2019-02-27T23:45:21.571Z,48.80
2019-02-27T23:47:47.713Z,48.90
2019-02-27T23:50:13.967Z,49.80
2019-02-27T23:52:40.212Z,49.20
2019-02-27T23:55:07.157Z,49.60
2019-02-27T23:57:34.537Z,50.10
